Предлагаем Вашему вниманию английскую версию страницы: AUTOTAF.ME 28409 - aviation weather forecast Mozhga

AUTOTAF 28409 - авиапрогноз Можга

Сегодня рассвет 02:49 UTC, восход солнца 03:28 UTC,
местный полдень 08:15 UTC, заход солнца 13:01 UTC,
наступление темноты 13:40 UTC.

Краткий прогноз 28409 на 9 часов

AUTOTAF.ME 28409 260800Z 2609/2618 32009G14MPS 9999 -SN OVC004    
  BECMG 2610/2612 OVC014  
  FM261500 34005G12MPS 9999 BKN013 
  FM261800 35008G14MPS 9999 BKN007

Детальный прогноз 28409 на 24 часа

AUTOTAF.ME 28409 260800Z 2609/2709 32009G14MPS 9999 -SN OVC004 TX01/2609Z TNM03/2700Z  
  BECMG 2610/2612 OVC014  
  FM261500 34005G12MPS 9999 BKN013 
  FM261800 35008G14MPS 9999 BKN007 
  BECMG 2619/2621 OVC014  
  FM270000 34004MPS 9999 BKN008  
  BECMG 2704/2706 SKC

Подробный табличный прогноз

Время (UTC) miniAUTOTAF на 3 ч WX FZLVL
M AGL
ICE TURB Т
(°С)
Тd
(°С)
f(%) QNH
(гПа)
WIND/T
06 32008MPS 6000 BR BKN008 BR 30 MOD FL120/FL130 MOD SFC/FL30 0 -2 84 1013 ...
09 32009G14MPS 9999 -SN OVC004 -SN 30 MOD FL120/FL130 1 -1 90 1014 ...
12 34009G14MPS 9999 -SN OVC014 -SN 110 MOD FL20/FL30 MOD SFC/FL40 1 -5 68 1017 ...
15 34005G12MPS 9999 BKN013 SFC MOD FL40/FL50 MOD SFC/FL30 -2 -5 78 1020 ...
18 35008G14MPS 9999 BKN007 SFC MOD FL10/FL20 MOD SFC/FL30 -2 -5 81 1023 ...
21 35007G13MPS 9999 OVC014 SFC MOD FL40/FL50 MOD SFC/FL30 -2 -5 77 1024 ...
27.10.2020
00 34004MPS 9999 BKN008 SFC MOD FL10/FL20 MOD SFC/FL20 -3 -5 82 1027 ...
03 34004MPS 9999 BKN008 SFC MOD FL10/FL20 MOD SFC/FL20 -3 -5 85 1028 ...
06 34004MPS 9999 SKC SFC MOD FL10/FL20 MOD SFC/FL20 -2 -5 76 1029 ...
09 33003MPS 9999 SKC 50 MOD SFC/FL20 1 -5 64 1030 ...
12 VRB02MPS 9999 SKC 110 MOD SFC/FL20 0 -5 70 1031 ...
15 VRB02MPS 9999 OVC183 SFC FBL FL190/FL200 -2 -5 81 1031 ...
18 VRB02MPS 9999 OVC170 SFC MOD FL190/FL200 -2 -5 78 1032 ...
21 VRB02MPS 9999 OVC098 SFC MOD FL110/FL120 -1 -5 74 1032 ...
28.10.2020
00 24003MPS 9999 OVC090 SFC MOD FL110/FL120 -1 -5 72 1032 ...
03 23003MPS 9999 OVC117 SFC MOD FL120/FL130 -1 -6 72 1031 ...


Широта 56.4°, долгота 52.2°, высота 169 м абс.
Средняя высота рельефа местности 180 м абс.
Прогнозы обновляются четыре раза в сутки: в 02, 08, 14, 20 ч всемирного времени.


Выбрать прогноз по другой модели Можга
Онлайн-сводка гроз по Можга (для РФ и ближнего зарубежья)
Карта фактических гроз в окрестностях Можга
Динамические прогностические карты (ventusky.com)
Прогностическая карта высоты нижней границы облаков по Можга (windy.com)
Выбрать другой город

Прогноз предназначен для личного научно-познавательного использования частными лицами
и не предназначен для принятия важных решений и выполнения реальных полётов воздушных судов

При копировании или ином использовании любых материалов данного сайта ссылка на © meteocenter.asia обязательна.

0.92/1.4